TAF CYGQ 230740Z 2308/2320 20005KT P6SM SKC
BECMG 2312/2314 24010KT
FM231800 24010G20KT P6SM FEW030 RMK FCST BASED ON AUTO OBS. NXT FCST BY 231400Z
From batch tds/tafs/production/2022/9/23/h07_m59_tafs.cache.xml
Issued (9 days ago)
Forecasts
2308/2312 20005KT P6SM SKC

---
fcst_time_to: '2022-09-23T12:00:00Z'
sky_condition:
- sky_cover: SKC
wind_speed_kt: '5'
fcst_time_from: '2022-09-23T08:00:00Z'
wind_dir_degrees: '200'
visibility_statute_mi: '6.21'

BECMG 2314/2318 24010KT P6SM SKC

---
fcst_time_to: '2022-09-23T18:00:00Z'
sky_condition:
- sky_cover: SKC
time_becoming: '2022-09-23T14:00:00Z'
wind_speed_kt: '10'
fcst_time_from: '2022-09-23T12:00:00Z'
change_indicator: BECMG
wind_dir_degrees: '240'
visibility_statute_mi: '6.21'

FM231800 24010G20KT P6SM FEW3000

---
fcst_time_to: '2022-09-23T20:00:00Z'
wind_gust_kt: '20'
sky_condition:
- sky_cover: FEW
  cloud_base_ft_agl: '3000'
wind_speed_kt: '10'
fcst_time_from: '2022-09-23T18:00:00Z'
change_indicator: FM
wind_dir_degrees: '240'
visibility_statute_mi: '6.21'

talk